aviador You're here:

KCSM Decoded Metar

CLINTON in OK, USA
Report Time2017-09-20 19:53:00
UTC Time2017-09-20 20:12:04
Flight Rules vfr VFR
Wind190° at 07 Gusting to 15 kt
W.Decomp.*RWY 17: 6.8 kt HW 1.5 kt RCW
W.Rank190° ranks 3
Current wind is below 190° avg. (13.7)
Visibility9999 m
Phenomena:N/A
Clouds:N/A
Expected CloudBase > 5,200 ft AGL from Temp-Dew spread
CeilingNone
Temp31°C (ISA +20)
Dew Point18°C (46% RH)
Heat Index31.9°C
QNH1010 hPa
Density Alt4,567 ft
Elevation1,929 ft
Report Wrong Elevation
Raw Report
KCSM 201953Z 19007G15KT 160V230 10SM CLR 31/18 A2983 RMK AO2
SLP076 T03110178=

Extra information for KCSM:More info

Metar Taf Metar & Taf Last 4 Metars F.Rules Stats Wind Profile Meteogram Temp Stats Airport Information Weather charts Add Link Nearby VenuesMetar ALERT Operation Metar Decoded Social comments

AIRNAV info for KCSM